Time;durP1;ratioP1;P1;durP2;ratioP2;P2;SDS_P1;SDS_P2;PMS_P1;PMS_P2;Temp;Humidity;BMP_temperature;BMP_pressure;BME280_temperature;BME280_humidity;BME280_pressure;Samples;Min_cycle;Max_cycle;Signal;HPM_P1;HPM_P2
2023/01/10 00:01:52;;;;;;;5.33;1.30;;;;;;;6.43;100.00;98362.03;6209928;23;20212;-82
2023/01/10 00:04:22;;;;;;;3.90;1.70;;;;;;;6.25;100.00;98353.25;6204277;23;20208;-82
2023/01/10 00:06:51;;;;;;;1.80;1.30;;;;;;;6.24;100.00;98365.75;6215106;23;20234;-82
2023/01/10 00:09:19;;;;;;;3.63;1.60;;;;;;;6.20;100.00;98362.69;6210892;23;20313;-82
2023/01/10 00:14:38;;;;;;;3.13;1.30;;;;;;;6.22;100.00;98362.47;6199565;23;20235;-83
2023/01/10 00:17:17;;;;;;;3.60;1.50;;;;;;;6.10;100.00;98362.44;6216316;23;20238;-82
2023/01/10 00:19:47;;;;;;;2.77;1.40;;;;;;;6.32;100.00;98376.06;6113796;23;20204;-81
2023/01/10 00:22:16;;;;;;;2.57;1.50;;;;;;;6.11;100.00;98368.56;6211747;23;20240;-83
2023/01/10 00:24:43;;;;;;;2.37;1.50;;;;;;;6.12;100.00;98370.16;6200943;23;20234;-81
2023/01/10 00:27:11;;;;;;;2.07;1.80;;;;;;;6.25;100.00;98387.84;6100488;23;20227;-83
2023/01/10 00:29:39;;;;;;;3.40;1.63;;;;;;;6.29;100.00;98383.69;6234015;23;20185;-82
2023/01/10 00:32:06;;;;;;;3.00;1.57;;;;;;;6.36;100.00;98387.91;6232556;23;20208;-81
2023/01/10 00:34:33;;;;;;;2.37;1.47;;;;;;;6.21;100.00;98376.81;6231389;23;20219;-82
2023/01/10 00:37:00;;;;;;;2.40;1.50;;;;;;;6.25;100.00;98380.69;6105790;23;20239;-81
2023/01/10 00:39:26;;;;;;;2.63;1.50;;;;;;;6.36;100.00;98398.53;6205700;23;20212;-81
2023/01/10 00:44:38;;;;;;;2.30;1.60;;;;;;;6.29;100.00;98402.31;6100617;23;20266;-81
2023/01/10 00:47:06;;;;;;;3.27;1.70;;;;;;;6.34;100.00;98407.78;6223141;23;20212;-81
2023/01/10 00:49:32;;;;;;;3.13;1.43;;;;;;;6.31;100.00;98411.69;6223015;23;20205;-81
2023/01/10 00:51:59;;;;;;;2.10;1.40;;;;;;;6.25;100.00;98409.94;6221888;23;20540;-82
2023/01/10 00:54:25;;;;;;;2.53;2.07;;;;;;;6.14;100.00;98427.44;6218429;23;20221;-81
2023/01/10 00:56:52;;;;;;;3.33;2.10;;;;;;;6.18;100.00;98417.97;6195190;23;20205;-82
2023/01/10 00:59:19;;;;;;;3.13;2.10;;;;;;;5.99;100.00;98423.47;6221568;23;20209;-81
2023/01/10 01:01:46;;;;;;;3.93;2.10;;;;;;;6.04;100.00;98426.28;6220318;23;20680;-81
2023/01/10 01:04:13;;;;;;;2.67;2.10;;;;;;;6.03;100.00;98432.63;6220255;23;20253;-80
2023/01/10 01:06:39;;;;;;;3.27;2.20;;;;;;;6.06;100.00;98429.56;6205641;23;20257;-83
2023/01/10 01:09:06;;;;;;;3.33;2.37;;;;;;;5.92;100.00;98431.53;6200870;23;20209;-81
2023/01/10 01:11:33;;;;;;;3.10;2.40;;;;;;;5.92;100.00;98449.31;6221563;23;20201;-81
2023/01/10 01:14:00;;;;;;;3.37;2.30;;;;;;;5.78;100.00;98449.38;6221495;23;20209;-81
2023/01/10 01:16:26;;;;;;;2.60;2.13;;;;;;;5.84;100.00;98450.38;6221863;23;20284;-82
2023/01/10 01:18:53;;;;;;;3.70;2.30;;;;;;;5.91;100.00;98460.97;6193134;23;20229;-80
2023/01/10 01:21:20;;;;;;;4.00;2.23;;;;;;;5.81;100.00;98456.13;6219395;23;20257;-81
2023/01/10 01:23:47;;;;;;;4.63;2.23;;;;;;;5.80;100.00;98469.63;6219669;23;20224;-80
2023/01/10 01:26:13;;;;;;;5.17;2.00;;;;;;;5.71;100.00;98472.56;6220125;23;20276;-81
2023/01/10 01:28:40;;;;;;;3.10;2.27;;;;;;;5.69;100.00;98471.16;6221101;23;20285;-82
2023/01/10 01:31:08;;;;;;;3.37;2.27;;;;;;;5.62;100.00;98478.34;6221549;23;20209;-81
2023/01/10 01:33:35;;;;;;;3.37;2.30;;;;;;;5.76;100.00;98478.03;6194517;23;20271;-80
2023/01/10 01:36:01;;;;;;;3.30;2.20;;;;;;;5.66;100.00;98479.53;6219862;23;20243;-81
2023/01/10 01:38:28;;;;;;;2.93;2.30;;;;;;;5.60;100.00;98491.84;6219805;23;20190;-81
2023/01/10 01:40:55;;;;;;;2.70;2.03;;;;;;;5.57;100.00;98481.66;6221632;23;20280;-81
2023/01/10 01:43:25;;;;;;;2.97;2.30;;;;;;;5.62;100.00;98483.66;6219158;23;20272;-80
2023/01/10 01:45:52;;;;;;;2.87;2.37;;;;;;;5.58;100.00;98496.56;6196562;23;20209;-81
2023/01/10 01:48:34;;;;;;;4.87;2.70;;;;;;;5.50;100.00;98493.38;6248559;23;20208;-83
2023/01/10 01:51:09;;;;;;;3.00;2.50;;;;;;;5.56;100.00;98480.03;6245816;23;20215;-84
2023/01/10 01:53:51;;;;;;;3.27;2.40;;;;;;;5.63;100.00;98501.25;6256290;22;20208;-83
2023/01/10 01:56:46;;;;;;;3.80;2.40;;;;;;;5.48;100.00;98504.19;6234620;22;20209;-84
2023/01/10 01:59:36;;;;;;;3.03;2.27;;;;;;;5.42;100.00;98504.22;6247585;23;20169;-83
2023/01/10 02:02:21;;;;;;;2.57;2.37;;;;;;;5.53;100.00;98503.56;6219428;23;20185;-84
2023/01/10 02:27:16;;;;;;;2.83;1.90;;;;;;;5.58;100.00;98515.19;6226710;23;20195;-81
2023/01/10 02:30:18;;;;;;;1.67;1.57;;;;;;;5.54;100.00;98524.59;5986838;23;20211;-82
2023/01/10 02:33:09;;;;;;;1.93;1.60;;;;;;;5.47;100.00;98507.88;5986259;23;20285;-81
2023/01/10 06:25:31;;;;;;;2.60;2.40;;;;;;;4.63;100.00;98844.19;6200603;23;20284;-80
2023/01/10 06:27:57;;;;;;;2.70;2.50;;;;;;;4.62;100.00;98850.53;6255786;23;20204;-80
2023/01/10 06:30:24;;;;;;;2.77;2.20;;;;;;;4.58;100.00;98854.56;6235913;22;20208;-80
2023/01/10 06:32:52;;;;;;;2.33;2.10;;;;;;;4.74;100.00;98862.19;6253887;23;20260;-80
2023/01/10 06:35:19;;;;;;;2.40;2.20;;;;;;;4.74;100.00;98863.00;6254986;23;20254;-80
2023/01/10 06:37:46;;;;;;;2.43;2.23;;;;;;;4.75;100.00;98874.44;6255893;23;20212;-80
2023/01/10 06:40:12;;;;;;;2.50;2.30;;;;;;;4.78;100.00;98895.25;6253441;22;20227;-80
2023/01/10 06:42:40;;;;;;;3.30;2.17;;;;;;;4.76;100.00;98878.69;6254697;23;20215;-81
2023/01/10 06:45:08;;;;;;;2.73;2.53;;;;;;;4.83;100.00;98893.63;6257368;23;20216;-80
2023/01/10 06:47:34;;;;;;;2.97;2.40;;;;;;;4.76;100.00;98886.66;6259738;23;20240;-80
2023/01/10 06:50:03;;;;;;;2.70;2.50;;;;;;;4.73;100.00;98895.03;6256970;22;20239;-81
2023/01/10 06:52:30;;;;;;;2.50;2.30;;;;;;;4.74;100.00;98899.31;6256578;23;20204;-80
2023/01/10 06:54:57;;;;;;;2.40;2.20;;;;;;;4.81;100.00;98898.31;6227103;23;20270;-80
2023/01/10 06:57:23;;;;;;;2.37;2.17;;;;;;;4.87;100.00;98915.28;6227895;23;20189;-80
2023/01/10 06:59:50;;;;;;;2.67;2.47;;;;;;;4.88;100.00;98919.59;6231801;23;20218;-80
2023/01/10 07:02:17;;;;;;;2.60;2.40;;;;;;;4.88;100.00;98916.94;6251308;22;20228;-80
2023/01/10 07:04:44;;;;;;;5.27;4.17;;;;;;;4.84;100.00;98931.63;6250727;23;20680;-80
2023/01/10 07:07:11;;;;;;;3.63;2.50;;;;;;;4.91;100.00;98927.13;6252968;23;20208;-80
2023/01/10 07:09:38;;;;;;;2.63;2.40;;;;;;;4.93;100.00;98927.75;6254578;23;20544;-81
2023/01/10 07:12:04;;;;;;;2.90;2.60;;;;;;;4.86;100.00;98938.34;6253916;22;20283;-80
2023/01/10 07:14:31;;;;;;;2.70;2.50;;;;;;;4.98;100.00;98927.16;6253276;23;20204;-80
2023/01/10 07:16:58;;;;;;;2.57;2.37;;;;;;;5.03;100.00;98938.00;6255719;22;20219;-80
2023/01/10 07:19:24;;;;;;;3.00;2.70;;;;;;;4.93;100.00;98933.06;6253337;23;20209;-80
2023/01/10 07:21:51;;;;;;;3.17;2.87;;;;;;;5.00;100.00;98941.84;6255160;22;20229;-80
2023/01/10 07:24:18;;;;;;;2.97;2.43;;;;;;;5.04;100.00;98953.72;6203199;22;20204;-80
2023/01/10 07:26:44;;;;;;;3.43;2.33;;;;;;;5.13;100.00;98955.16;6253726;22;20280;-80
2023/01/10 07:29:11;;;;;;;2.60;2.40;;;;;;;5.11;100.00;98957.22;6254263;22;20291;-80
2023/01/10 07:31:37;;;;;;;2.97;2.50;;;;;;;5.21;100.00;98962.97;6253707;22;20208;-80
2023/01/10 07:34:04;;;;;;;3.60;2.70;;;;;;;5.26;100.00;98976.47;6249813;22;20204;-79
2023/01/10 07:36:31;;;;;;;2.33;2.13;;;;;;;5.36;100.00;98983.22;6266513;22;20544;-79
2023/01/10 07:38:57;;;;;;;2.80;2.40;;;;;;;5.26;100.00;98975.63;6253532;22;20209;-79
2023/01/10 07:41:24;;;;;;;2.57;2.30;;;;;;;5.32;100.00;98978.28;6248984;22;20581;-79
2023/01/10 07:43:51;;;;;;;2.93;2.07;;;;;;;5.32;100.00;98985.44;6249488;22;20201;-79
2023/01/10 07:46:17;;;;;;;2.70;2.10;;;;;;;5.42;100.00;98993.03;6246284;23;20204;-80
2023/01/10 07:48:45;;;;;;;2.80;2.30;;;;;;;5.48;100.00;99006.31;6249473;22;20239;-79
2023/01/10 07:51:12;;;;;;;2.43;2.23;;;;;;;5.48;100.00;99000.19;6249510;22;20263;-79
2023/01/10 07:53:39;;;;;;;2.40;2.20;;;;;;;5.50;100.00;99016.75;6249012;22;20204;-79
2023/01/10 07:56:06;;;;;;;2.53;2.33;;;;;;;5.51;100.00;99010.41;6244846;22;20205;-78
2023/01/10 07:58:32;;;;;;;2.20;2.00;;;;;;;5.47;100.00;99009.16;6249039;22;20224;-79
2023/01/10 08:01:01;;;;;;;2.40;2.20;;;;;;;5.56;100.00;99023.91;6249114;22;20260;-79
2023/01/10 08:03:28;;;;;;;2.33;2.13;;;;;;;5.55;100.00;99032.91;6221757;23;20212;-79
2023/01/10 08:06:00;;;;;;;2.37;2.17;;;;;;;5.62;100.00;99044.38;6248684;22;20266;-80
2023/01/10 08:08:27;;;;;;;2.37;2.17;;;;;;;5.61;100.00;99042.72;6249157;23;20231;-79
2023/01/10 08:10:54;;;;;;;2.30;2.10;;;;;;;5.67;100.00;99048.06;6239480;22;20208;-79
2023/01/10 08:13:21;;;;;;;2.50;2.30;;;;;;;5.65;100.00;99063.38;6264153;22;20258;-79
2023/01/10 08:15:50;;;;;;;3.00;2.57;;;;;;;5.62;100.00;99071.75;6250888;22;20211;-79
2023/01/10 08:18:18;;;;;;;3.07;2.43;;;;;;;5.77;100.00;99082.22;6224528;22;20209;-79
2023/01/10 08:20:47;;;;;;;2.50;2.30;;;;;;;5.76;100.00;99081.41;6249881;23;20207;-79
2023/01/10 08:23:14;;;;;;;3.10;2.27;;;;;;;5.74;100.00;99082.59;6251181;22;20200;-80
2023/01/10 08:25:41;;;;;;;2.37;2.17;;;;;;;5.80;100.00;99086.31;6228176;23;20226;-79
2023/01/10 08:28:08;;;;;;;5.43;3.17;;;;;;;5.76;100.00;99094.69;6228672;22;20215;-79
2023/01/10 08:30:36;;;;;;;2.70;2.20;;;;;;;5.78;100.00;99106.97;6126432;22;20208;-79
2023/01/10 08:33:04;;;;;;;2.77;2.50;;;;;;;5.86;100.00;99102.28;6131150;22;20211;-79
2023/01/10 08:35:38;;;;;;;2.30;2.10;;;;;;;5.81;100.00;99107.38;6225750;23;20210;-79
2023/01/10 08:38:05;;;;;;;2.50;2.30;;;;;;;5.75;100.00;99109.00;6216116;22;20234;-79
2023/01/10 08:40:32;;;;;;;2.90;2.57;;;;;;;5.91;100.00;99118.47;6228683;23;20529;-79
2023/01/10 08:43:00;;;;;;;2.20;2.00;;;;;;;5.86;100.00;99126.22;6124888;23;20698;-79
2023/01/10 08:45:27;;;;;;;2.43;2.23;;;;;;;5.91;100.00;99125.63;6225414;23;20211;-79
2023/01/10 08:47:54;;;;;;;2.53;2.33;;;;;;;5.95;100.00;99132.19;6125919;23;20179;-80
2023/01/10 08:50:21;;;;;;;3.77;3.27;;;;;;;6.07;100.00;99139.34;6123964;22;20218;-79
2023/01/10 08:52:48;;;;;;;2.67;2.47;;;;;;;6.15;100.00;99144.50;6125191;23;20282;-79
2023/01/10 08:55:14;;;;;;;3.33;3.03;;;;;;;6.14;100.00;99150.00;6125433;23;20183;-79
2023/01/10 08:57:41;;;;;;;3.47;2.50;;;;;;;6.11;100.00;99153.09;6125515;22;20223;-80
2023/01/10 09:00:10;;;;;;;3.00;2.43;;;;;;;6.08;100.00;99161.44;6124455;22;20212;-79
2023/01/10 09:02:40;;;;;;;2.30;2.10;;;;;;;6.11;100.00;99158.41;6225625;23;20290;-79
2023/01/10 09:05:08;;;;;;;3.57;2.30;;;;;;;6.11;100.00;99175.16;6125430;22;20268;-80
2023/01/10 09:07:52;;;;;;;2.90;1.97;;;;;;;6.32;100.00;99184.00;6124193;22;20214;-79
2023/01/10 09:10:20;;;;;;;2.30;2.10;;;;;;;6.39;100.00;99188.28;6128934;22;20210;-79
2023/01/10 09:12:57;;;;;;;2.27;2.07;;;;;;;6.37;100.00;99176.22;6125969;22;20211;-80
2023/01/10 09:15:42;;;;;;;1.90;1.70;;;;;;;6.35;100.00;99168.44;6217757;23;20208;-80
2023/01/10 09:18:11;;;;;;;3.03;1.70;;;;;;;6.39;100.00;99164.34;6125488;22;20213;-80
2023/01/10 09:20:39;;;;;;;2.17;1.90;;;;;;;6.32;100.00;99174.19;6225319;23;20714;-80
2023/01/10 09:23:18;;;;;;;2.20;2.00;;;;;;;6.47;100.00;99184.63;6226411;23;20278;-79
2023/01/10 09:25:46;;;;;;;2.10;1.90;;;;;;;6.52;100.00;99184.84;6222855;23;20207;-79
2023/01/10 09:28:13;;;;;;;3.30;1.90;;;;;;;6.59;100.00;99190.97;6200720;22;20636;-79
2023/01/10 09:30:40;;;;;;;1.90;1.67;;;;;;;6.62;100.00;99193.25;6226665;23;20203;-80
2023/01/10 09:33:07;;;;;;;1.73;1.60;;;;;;;6.62;100.00;99193.25;6125949;22;20207;-80
2023/01/10 09:35:35;;;;;;;2.20;2.00;;;;;;;6.70;100.00;99203.69;6126209;22;20254;-80
2023/01/10 09:38:03;;;;;;;2.20;1.80;;;;;;;6.71;100.00;99208.00;6227303;22;20694;-79
2023/01/10 09:40:30;;;;;;;2.90;2.30;;;;;;;6.73;100.00;99208.59;6125793;23;20207;-79
2023/01/10 09:43:20;;;;;;;1.87;1.67;;;;;;;6.71;100.00;99208.00;6125623;22;20210;-79
2023/01/10 09:45:59;;;;;;;2.53;1.80;;;;;;;6.74;100.00;99212.91;6127982;22;20526;-80
2023/01/10 09:48:32;;;;;;;2.83;1.93;;;;;;;6.80;100.00;99217.41;6214365;23;20203;-80
2023/01/10 09:51:23;;;;;;;4.37;2.07;;;;;;;6.69;100.00;99212.69;6227837;23;20286;-79
2023/01/10 09:53:54;;;;;;;4.60;1.97;;;;;;;6.88;100.00;99224.34;6127601;22;20212;-79
2023/01/10 09:56:36;;;;;;;2.20;2.00;;;;;;;6.91;100.00;99214.09;6213259;22;20242;-79
2023/01/10 09:59:03;;;;;;;2.10;1.90;;;;;;;6.93;100.00;99214.72;6125261;22;20227;-80
2023/01/10 10:01:35;;;;;;;2.87;1.77;;;;;;;6.98;100.00;99227.44;6226578;23;20287;-79
2023/01/10 10:04:11;;;;;;;2.23;1.70;;;;;;;6.98;100.00;99240.75;6124420;22;20574;-80
2023/01/10 10:06:37;;;;;;;2.43;1.83;;;;;;;6.92;100.00;99236.22;6126049;22;20211;-79
2023/01/10 10:09:04;;;;;;;2.80;1.80;;;;;;;6.90;100.00;99238.31;6126176;22;20672;-79
2023/01/10 10:11:57;;;;;;;2.00;1.80;;;;;;;7.07;100.00;99236.84;6124830;22;20230;-79
2023/01/10 10:14:32;;;;;;;2.03;1.70;;;;;;;7.07;100.00;99243.00;6123819;22;20205;-79
2023/01/10 10:17:12;;;;;;;2.63;1.73;;;;;;;7.06;100.00;99240.53;6138201;22;20667;-80
2023/01/10 10:19:39;;;;;;;2.07;1.77;;;;;;;7.01;100.00;99248.31;6238808;22;20589;-81
2023/01/10 10:22:25;;;;;;;2.30;1.93;;;;;;;7.14;100.00;99239.53;6125310;22;20199;-79
2023/01/10 10:25:10;;;;;;;2.90;1.90;;;;;;;7.17;100.00;99247.91;6125794;22;20217;-80
2023/01/10 10:28:03;;;;;;;1.70;1.57;;;;;;;7.13;100.00;99237.88;6231526;23;20219;-79
2023/01/10 10:30:32;;;;;;;2.00;1.80;;;;;;;7.14;100.00;99247.50;6122323;22;20216;-79
2023/01/10 10:33:12;;;;;;;2.03;1.83;;;;;;;7.28;100.00;99251.78;6125934;22;20231;-80
2023/01/10 10:35:46;;;;;;;1.90;1.73;;;;;;;7.22;100.00;99250.78;6224225;23;20235;-80
2023/01/10 10:38:36;;;;;;;3.20;1.70;;;;;;;7.24;100.00;99251.38;6197939;22;20226;-80
2023/01/10 10:41:04;;;;;;;2.13;1.87;;;;;;;7.21;100.00;99241.13;6225908;23;20222;-80
2023/01/10 10:43:33;;;;;;;2.10;1.90;;;;;;;7.33;100.00;99260.78;6227183;23;20235;-80
2023/01/10 10:46:13;;;;;;;2.30;1.70;;;;;;;7.36;100.00;99251.56;6202690;23;20192;-79
2023/01/10 10:48:52;;;;;;;2.73;1.97;;;;;;;7.47;100.00;99254.41;6226866;23;20217;-79
2023/01/10 10:51:24;;;;;;;2.20;1.80;;;;;;;7.38;100.00;99253.00;6225579;23;20237;-79
2023/01/10 10:53:52;;;;;;;1.80;1.70;;;;;;;7.53;100.00;99260.75;6129235;22;20207;-80
2023/01/10 10:56:22;;;;;;;1.60;1.50;;;;;;;7.42;100.00;99259.53;6202336;22;20245;-80
2023/01/10 10:58:52;;;;;;;2.23;1.83;;;;;;;7.51;100.00;99266.28;6231507;23;20219;-81
2023/01/10 11:01:19;;;;;;;2.33;1.83;;;;;;;7.68;100.00;99274.66;6180292;23;20199;-80
2023/01/10 11:03:50;;;;;;;3.67;1.83;;;;;;;7.79;100.00;99257.22;6128236;22;20208;-80
2023/01/10 11:06:18;;;;;;;2.00;1.80;;;;;;;7.52;100.00;99262.59;6124025;22;20211;-79
2023/01/10 11:08:47;;;;;;;2.67;1.60;;;;;;;7.57;100.00;99264.63;6224455;23;20716;-80
2023/01/10 11:11:23;;;;;;;2.50;1.80;;;;;;;7.79;100.00;99265.22;6177247;23;20300;-80
2023/01/10 11:13:57;;;;;;;2.23;1.80;;;;;;;7.73;100.00;99277.53;6223335;23;20211;-79
2023/01/10 11:16:28;;;;;;;2.30;1.60;;;;;;;7.65;100.00;99276.94;6121713;22;20207;-79
2023/01/10 11:19:22;;;;;;;2.23;1.63;;;;;;;7.87;100.00;99272.97;6123898;22;20215;-80
2023/01/10 11:21:59;;;;;;;2.57;1.80;;;;;;;7.99;100.00;99279.28;6129071;22;20222;-80
2023/01/10 11:24:30;;;;;;;2.30;2.07;;;;;;;7.98;100.00;99285.63;6225252;22;20266;-79
2023/01/10 11:26:59;;;;;;;2.50;1.70;;;;;;;7.93;100.00;99275.59;6124695;22;20212;-80
2023/01/10 11:29:36;;;;;;;2.17;1.80;;;;;;;7.89;100.00;99273.56;6227503;23;20207;-79
2023/01/10 11:32:14;;;;;;;3.13;1.67;;;;;;;7.79;100.00;99294.53;6223820;22;20668;-78
2023/01/10 11:34:47;;;;;;;3.40;1.80;;;;;;;7.78;100.00;99288.38;6122161;22;20211;-77
2023/01/10 11:37:23;;;;;;;2.10;1.70;;;;;;;7.84;100.00;99294.72;6223474;23;20219;-79
2023/01/10 11:40:16;;;;;;;2.07;1.87;;;;;;;7.89;100.00;99279.72;6123046;22;20253;-79
2023/01/10 11:42:43;;;;;;;1.57;1.47;;;;;;;7.88;100.00;99279.94;6123115;23;20261;-80
2023/01/10 11:45:15;;;;;;;1.63;1.37;;;;;;;7.87;100.00;99288.97;6123764;22;20549;-79
2023/01/10 11:47:44;;;;;;;1.77;1.60;;;;;;;8.00;100.00;99280.09;6127189;22;20207;-80
2023/01/10 11:50:18;;;;;;;1.77;1.47;;;;;;;7.93;100.00;99283.59;6124604;22;20227;-79
2023/01/10 11:52:45;;;;;;;2.23;2.03;;;;;;;7.96;100.00;99277.84;6224241;23;20682;-80
2023/01/10 11:55:23;;;;;;;2.27;1.90;;;;;;;7.87;100.00;99284.47;6224499;22;20253;-80
2023/01/10 11:58:12;;;;;;;2.07;1.50;;;;;;;7.96;100.00;99304.53;6223795;23;20191;-80
2023/01/10 12:00:47;;;;;;;2.00;1.73;;;;;;;7.85;100.00;99297.16;6221855;23;20219;-78
2023/01/10 12:03:16;;;;;;;2.30;1.63;;;;;;;7.87;100.00;99302.31;6120994;23;20215;-78
2023/01/10 12:05:50;;;;;;;2.00;1.73;;;;;;;7.97;100.00;99314.19;6121721;22;20203;-78
2023/01/10 12:08:37;;;;;;;2.57;1.40;;;;;;;7.90;100.00;99302.69;6221199;22;20207;-77
2023/01/10 12:11:07;;;;;;;1.60;1.50;;;;;;;7.88;100.00;99306.63;6121358;22;20211;-78
2023/01/10 12:13:48;;;;;;;1.87;1.37;;;;;;;7.95;100.00;99310.06;6221529;23;20286;-77
2023/01/10 12:16:16;;;;;;;1.40;1.30;;;;;;;7.90;100.00;99293.88;6122724;22;20620;-77
2023/01/10 12:18:43;;;;;;;2.80;1.20;;;;;;;7.83;100.00;99301.91;6120996;22;20579;-78
2023/01/10 12:21:12;;;;;;;1.30;1.20;;;;;;;8.00;100.00;99299.59;6122133;22;20690;-78
2023/01/10 12:23:43;;;;;;;1.50;1.20;;;;;;;7.90;100.00;99315.22;6221551;23;20215;-77
2023/01/10 12:26:13;;;;;;;2.40;1.47;;;;;;;7.92;100.00;99322.00;6219577;22;20660;-77
2023/01/10 12:28:50;;;;;;;2.20;1.47;;;;;;;7.76;100.00;99305.59;6220024;23;20709;-78
2023/01/10 12:31:18;;;;;;;1.30;1.20;;;;;;;7.96;100.00;99325.88;6221253;23;20738;-78
2023/01/10 12:33:46;;;;;;;1.20;1.10;;;;;;;7.91;100.00;99320.34;6120985;22;20211;-77
2023/01/10 12:36:27;;;;;;;1.53;1.00;;;;;;;7.94;100.00;99311.09;6221870;22;20676;-78
2023/01/10 12:39:03;;;;;;;1.10;1.00;;;;;;;7.87;100.00;99328.97;6120430;22;20215;-77
2023/01/10 12:44:35;;;;;;;1.40;0.90;;;;;;;7.74;100.00;99329.03;6121355;22;20231;-78
2023/01/10 12:47:23;;;;;;;0.83;0.83;;;;;;;7.76;100.00;99337.59;6221274;23;20286;-78
2023/01/10 12:50:04;;;;;;;1.23;1.00;;;;;;;7.70;100.00;99347.25;6120946;22;20688;-77
2023/01/10 12:52:47;;;;;;;2.10;1.10;;;;;;;7.76;100.00;99341.09;6219268;23;20211;-77
2023/01/10 12:55:15;;;;;;;1.07;0.90;;;;;;;7.65;100.00;99325.72;6120870;22;20211;-77
2023/01/10 12:57:47;;;;;;;1.57;0.80;;;;;;;7.63;100.00;99326.97;6222226;23;20580;-78
2023/01/10 13:00:27;;;;;;;2.30;1.07;;;;;;;7.68;100.00;99329.84;6217107;22;20214;-78
2023/01/10 13:02:59;;;;;;;1.37;0.80;;;;;;;7.63;100.00;99343.78;6120670;22;20294;-77
2023/01/10 13:05:28;;;;;;;1.47;0.83;;;;;;;7.61;100.00;99337.84;6222931;23;20187;-77
2023/01/10 13:08:02;;;;;;;1.30;1.00;;;;;;;7.45;100.00;99336.44;6221432;23;20253;-78
2023/01/10 13:10:30;;;;;;;0.90;0.90;;;;;;;7.49;100.00;99348.31;6220715;23;20203;-78
2023/01/10 13:13:25;;;;;;;1.30;1.00;;;;;;;7.47;100.00;99352.22;6121716;23;20278;-78
2023/01/10 13:16:14;;;;;;;0.87;0.87;;;;;;;7.50;100.00;99378.47;6222180;23;20269;-78
2023/01/10 13:19:09;;;;;;;1.10;0.90;;;;;;;7.47;100.00;99369.03;6148447;22;20625;-78
2023/01/10 13:21:40;;;;;;;2.63;1.27;;;;;;;7.46;100.00;99371.91;6174680;22;20208;-78
2023/01/10 13:24:22;;;;;;;1.73;0.83;;;;;;;7.47;100.00;99379.69;6219903;22;20660;-78
2023/01/10 13:26:57;;;;;;;2.37;1.00;;;;;;;7.37;100.00;99386.47;6221954;23;20215;-77
2023/01/10 13:29:28;;;;;;;1.73;0.90;;;;;;;7.47;100.00;99374.34;6220856;23;20289;-77
2023/01/10 13:31:58;;;;;;;1.50;1.00;;;;;;;7.54;100.00;99387.69;6120910;22;20277;-78
2023/01/10 13:34:34;;;;;;;2.47;1.07;;;;;;;7.46;100.00;99380.72;6220460;22;20282;-78
2023/01/10 13:37:11;;;;;;;1.03;0.93;;;;;;;7.50;100.00;99399.78;6121056;22;20264;-78
2023/01/10 13:39:44;;;;;;;1.67;0.80;;;;;;;7.53;100.00;99402.88;6222249;23;20599;-77
2023/01/10 13:45:13;;;;;;;1.33;0.90;;;;;;;7.63;100.00;99418.44;6120784;22;20203;-77
2023/01/10 13:47:44;;;;;;;1.60;1.00;;;;;;;7.67;100.00;99422.34;6119162;22;20274;-77
2023/01/10 13:50:41;;;;;;;1.80;1.03;;;;;;;7.57;100.00;99421.94;6120227;22;20235;-77
2023/01/10 13:53:07;;;;;;;1.07;0.90;;;;;;;7.51;100.00;99412.09;6120844;22;20212;-77
2023/01/10 13:55:45;;;;;;;1.10;0.90;;;;;;;7.52;100.00;99406.56;6123230;22;20199;-80
2023/01/10 13:58:14;;;;;;;0.90;0.80;;;;;;;7.47;100.00;99430.34;6225747;22;20215;-79
2023/01/10 14:03:41;;;;;;;2.97;0.90;;;;;;;7.44;100.00;99436.09;6209817;23;20215;-80
2023/01/10 14:06:14;;;;;;;1.20;0.73;;;;;;;7.44;100.00;99436.09;6124890;22;20233;-79
2023/01/10 14:08:49;;;;;;;0.70;0.70;;;;;;;7.49;100.00;99432.81;6122638;22;20211;-79
2023/01/10 14:11:16;;;;;;;0.53;0.50;;;;;;;7.52;100.00;99443.03;6221211;23;20216;-79
2023/01/10 14:13:50;;;;;;;0.57;0.50;;;;;;;7.53;100.00;99442.84;6125237;22;20218;-79
2023/01/10 14:16:37;;;;;;;1.27;0.80;;;;;;;7.54;100.00;99459.66;6224558;22;20211;-80
2023/01/10 14:19:06;;;;;;;0.57;0.53;;;;;;;7.55;100.00;99463.16;6123420;22;20282;-80
2023/01/10 14:21:40;;;;;;;0.70;0.60;;;;;;;7.53;100.00;99460.69;6224547;23;20203;-80
2023/01/10 14:24:25;;;;;;;0.73;0.60;;;;;;;7.46;100.00;99476.69;6099666;22;20282;-78
2023/01/10 14:26:53;;;;;;;1.30;0.80;;;;;;;7.48;100.00;99471.97;6123374;22;20212;-79
2023/01/10 14:29:27;;;;;;;0.93;0.80;;;;;;;7.42;100.00;99471.94;6122314;22;20265;-79
2023/01/10 14:31:54;;;;;;;0.90;0.60;;;;;;;7.41;100.00;99473.00;6197976;23;20271;-79
2023/01/10 14:34:35;;;;;;;1.20;0.70;;;;;;;7.10;100.00;99484.19;6223536;22;20214;-78
2023/01/10 14:37:08;;;;;;;1.07;0.83;;;;;;;7.10;100.00;99473.53;6222226;23;20203;-79
2023/01/10 14:39:35;;;;;;;1.17;0.83;;;;;;;7.03;100.00;99478.84;6223942;23;20230;-80
2023/01/10 14:42:06;;;;;;;0.80;0.80;;;;;;;6.93;100.00;99486.41;6224997;22;20583;-78
2023/01/10 14:44:54;;;;;;;1.43;0.73;;;;;;;7.03;100.00;99486.84;6223601;23;20230;-80
2023/01/10 14:47:32;;;;;;;0.97;0.60;;;;;;;7.00;100.00;99500.53;6123480;22;20675;-79
2023/01/10 14:50:00;;;;;;;2.00;0.70;;;;;;;7.05;100.00;99500.75;6225376;23;20214;-80
2023/01/10 14:52:27;;;;;;;2.57;0.87;;;;;;;7.09;100.00;99502.00;6137019;22;20652;-79
2023/01/10 14:55:01;;;;;;;1.73;1.00;;;;;;;7.21;100.00;99507.59;6236900;22;20273;-80
2023/01/10 14:57:28;;;;;;;2.17;0.90;;;;;;;7.08;100.00;99515.53;6224826;23;20998;-80
2023/01/10 15:00:12;;;;;;;1.20;0.80;;;;;;;7.11;100.00;99523.13;6122623;22;20207;-79
2023/01/10 15:02:45;;;;;;;0.80;0.70;;;;;;;7.00;100.00;99532.50;6122816;22;20211;-79
2023/01/10 15:05:22;;;;;;;2.00;0.83;;;;;;;7.11;100.00;99531.13;6223967;23;20211;-79
2023/01/10 15:07:49;;;;;;;1.10;0.87;;;;;;;6.89;100.00;99540.25;6224753;23;20237;-79
2023/01/10 15:10:27;;;;;;;0.77;0.77;;;;;;;6.84;100.00;99562.16;6123985;22;20207;-80
2023/01/10 15:12:56;;;;;;;1.77;0.80;;;;;;;6.89;100.00;99553.56;6124182;22;20672;-79
2023/01/10 15:15:30;;;;;;;1.57;0.80;;;;;;;6.90;100.00;99549.91;6226227;23;20549;-79
2023/01/10 15:17:59;;;;;;;0.80;0.80;;;;;;;6.82;100.00;99560.69;6225543;23;20590;-79
2023/01/10 15:20:26;;;;;;;3.10;2.27;;;;;;;6.82;100.00;99564.19;6200214;23;20199;-79
2023/01/10 15:22:59;;;;;;;3.80;2.97;;;;;;;6.68;100.00;99565.13;6125256;22;20548;-79
2023/01/10 15:25:30;;;;;;;2.07;1.87;;;;;;;6.74;100.00;99569.69;6224838;23;20214;-78
2023/01/10 15:27:58;;;;;;;1.90;1.43;;;;;;;6.73;100.00;99581.34;6124979;22;20211;-79
2023/01/10 15:30:30;;;;;;;2.00;1.67;;;;;;;6.64;100.00;99586.00;6225555;22;20214;-79
2023/01/10 15:33:02;;;;;;;1.80;1.70;;;;;;;6.63;100.00;99591.50;6225320;23;20183;-79
2023/01/10 15:35:29;;;;;;;1.60;1.37;;;;;;;6.63;100.00;99589.66;6238796;22;20275;-78
2023/01/10 15:38:10;;;;;;;1.57;1.10;;;;;;;6.61;100.00;99601.53;6150436;22;20290;-79
2023/01/10 15:40:37;;;;;;;3.07;1.30;;;;;;;6.55;100.00;99605.81;6224578;23;20219;-78
2023/01/10 15:43:17;;;;;;;3.00;1.90;;;;;;;6.64;100.00;99609.13;6124564;22;20203;-79
2023/01/10 15:45:45;;;;;;;1.93;1.43;;;;;;;6.48;100.00;99614.78;6121593;22;20230;-79
2023/01/10 15:48:39;;;;;;;2.00;1.47;;;;;;;6.39;100.00;99616.72;6225316;22;20736;-78
2023/01/10 15:51:19;;;;;;;2.20;2.00;;;;;;;6.31;100.00;99624.84;6226700;23;20273;-79
2023/01/10 15:54:02;;;;;;;1.60;1.50;;;;;;;6.04;100.00;99623.81;6202290;23;20238;-79
2023/01/10 15:56:33;;;;;;;2.30;1.70;;;;;;;5.89;100.00;99636.34;6126140;22;20219;-78
2023/01/10 15:59:01;;;;;;;1.77;1.50;;;;;;;6.00;100.00;99643.00;6124942;22;20216;-79
2023/01/10 16:01:30;;;;;;;1.90;1.70;;;;;;;5.79;100.00;99641.09;6226318;23;20211;-79
2023/01/10 16:04:00;;;;;;;3.67;2.13;;;;;;;5.82;100.00;99646.06;6224613;23;20208;-79
2023/01/10 16:06:30;;;;;;;3.17;1.93;;;;;;;5.95;100.00;99645.41;6226576;23;20238;-79
2023/01/10 16:08:58;;;;;;;2.20;1.70;;;;;;;5.84;100.00;99635.22;6226862;23;20554;-79
2023/01/10 16:14:32;;;;;;;3.23;2.00;;;;;;;5.83;100.00;99639.75;6226645;23;20211;-78
2023/01/10 16:16:59;;;;;;;2.10;1.90;;;;;;;5.84;100.00;99651.16;6125248;22;20640;-79
2023/01/10 16:19:27;;;;;;;2.07;1.80;;;;;;;5.81;100.00;99652.38;6125300;22;20211;-80
2023/01/10 16:21:57;;;;;;;2.67;1.63;;;;;;;5.82;100.00;99656.69;6125766;23;20286;-80
2023/01/10 16:24:27;;;;;;;2.70;1.83;;;;;;;6.01;100.00;99661.44;6224573;22;20204;-79
2023/01/10 16:26:55;;;;;;;2.27;1.80;;;;;;;5.91;100.00;99662.75;6214186;23;20232;-79